createdAt,value
2022-10-09T00:02:53.962Z,101414.88
2022-10-09T00:05:55.954Z,101416.09
2022-10-09T00:08:59.458Z,101371.81
2022-10-09T00:12:02.076Z,101376.22
2022-10-09T00:15:04.456Z,101404.44
2022-10-09T00:18:08.101Z,101417.63
2022-10-09T00:21:36.886Z,101384.66
2022-10-09T00:24:39.253Z,101367.59
2022-10-09T00:27:42.412Z,101390.22
2022-10-09T00:30:44.998Z,101416.75
2022-10-09T00:33:47.402Z,101403.59
2022-10-09T00:36:49.648Z,101395.69
2022-10-09T00:39:52.541Z,101404.59
2022-10-09T00:42:59.311Z,101413.72
2022-10-09T00:46:06.657Z,101397.97
2022-10-09T00:49:18.275Z,101410.31
2022-10-09T00:52:29.151Z,101386.31
2022-10-09T00:55:35.082Z,101389.72
2022-10-09T00:58:37.992Z,101372.13
2022-10-09T01:01:42.821Z,101400.88
2022-10-09T01:04:47.027Z,101404.63
2022-10-09T01:08:06.536Z,101378.78
2022-10-09T01:11:22.293Z,101408.00
2022-10-09T01:14:32.783Z,101374.03
2022-10-09T01:17:42.206Z,101400.03
2022-10-09T01:21:10.921Z,101397.69
2022-10-09T01:24:15.630Z,101404.28
2022-10-09T01:27:24.548Z,101371.66
2022-10-09T01:30:27.604Z,101373.69
2022-10-09T01:33:40.184Z,101365.78
2022-10-09T01:36:44.349Z,101390.63
2022-10-09T01:40:15.806Z,101408.69
2022-10-09T01:43:17.885Z,101390.63
2022-10-09T01:46:29.373Z,101395.00
2022-10-09T01:49:43.337Z,101393.81
2022-10-09T01:53:01.804Z,101377.25
2022-10-09T01:56:19.229Z,101390.25
2022-10-09T01:59:24.545Z,101395.34
2022-10-09T02:02:28.085Z,101384.22
2022-10-09T02:05:32.823Z,101374.56
2022-10-09T02:08:40.511Z,101378.28
2022-10-09T02:11:50.161Z,101340.91
2022-10-09T02:14:52.208Z,101377.44
2022-10-09T02:18:02.875Z,101358.69
2022-10-09T02:21:21.191Z,101370.19
2022-10-09T02:24:24.193Z,101403.16
2022-10-09T02:27:27.830Z,101389.44
2022-10-09T02:30:39.457Z,101416.34
2022-10-09T02:33:42.572Z,101418.53
2022-10-09T02:36:44.571Z,101431.22
2022-10-09T02:39:47.222Z,101406.19
2022-10-09T02:42:49.933Z,101410.41
2022-10-09T02:45:52.305Z,101415.31
2022-10-09T02:48:54.374Z,101431.53
2022-10-09T02:51:56.415Z,101418.22
2022-10-09T02:54:58.456Z,101430.22
2022-10-09T02:58:00.583Z,101457.72
2022-10-09T03:01:05.130Z,101453.66
2022-10-09T03:04:07.167Z,101458.56
2022-10-09T03:07:09.384Z,101448.97
2022-10-09T03:10:11.311Z,101434.75
2022-10-09T03:13:13.425Z,101442.03
2022-10-09T03:16:18.670Z,101447.72
2022-10-09T03:19:20.744Z,101433.28
2022-10-09T03:22:23.233Z,101421.38
2022-10-09T03:25:25.364Z,101430.59
2022-10-09T03:28:28.028Z,101417.00
2022-10-09T03:34:52.206Z,101433.56
2022-10-09T03:37:54.238Z,101440.09
2022-10-09T03:40:58.854Z,101445.44
2022-10-09T03:44:01.062Z,101449.69
2022-10-09T03:47:03.167Z,101452.78
2022-10-09T03:50:07.042Z,101434.22
2022-10-09T03:53:11.539Z,101459.91
2022-10-09T03:56:13.743Z,101458.06
2022-10-09T03:59:15.781Z,101460.81
2022-10-09T04:02:17.788Z,101467.72
2022-10-09T04:05:20.465Z,101457.09
2022-10-09T04:08:22.457Z,101468.25
2022-10-09T04:11:24.529Z,101471.28
2022-10-09T04:14:26.539Z,101462.84
2022-10-09T04:17:29.088Z,101429.19
2022-10-09T04:20:31.617Z,101449.63
2022-10-09T04:23:35.088Z,101460.75
2022-10-09T04:26:37.221Z,101467.00
2022-10-09T04:29:42.046Z,101463.13
2022-10-09T04:32:44.126Z,101469.44
2022-10-09T04:35:49.600Z,101477.56
2022-10-09T04:38:52.847Z,101477.72
2022-10-09T04:41:54.926Z,101488.91
2022-10-09T04:44:56.988Z,101467.59
2022-10-09T04:47:59.440Z,101483.47
2022-10-09T04:51:04.946Z,101487.22
2022-10-09T04:54:08.637Z,101455.88
2022-10-09T04:57:12.743Z,101490.75
2022-10-09T05:00:15.447Z,101493.63
2022-10-09T05:03:18.775Z,101496.66
2022-10-09T05:06:23.075Z,101505.94
2022-10-09T05:09:25.476Z,101516.44
2022-10-09T05:12:29.588Z,101505.78
2022-10-09T05:15:32.392Z,101486.44
2022-10-09T05:18:45.158Z,101511.34
2022-10-09T05:21:48.184Z,101520.69
2022-10-09T05:24:50.250Z,101484.59
2022-10-09T05:27:52.379Z,101502.56
2022-10-09T05:30:59.347Z,101483.06
2022-10-09T05:34:02.290Z,101526.94
2022-10-09T05:37:04.332Z,101501.50
2022-10-09T05:40:07.102Z,101499.63
2022-10-09T05:43:09.213Z,101531.31
2022-10-09T05:46:15.650Z,101541.31
2022-10-09T05:49:17.872Z,101529.13
2022-10-09T05:52:20.615Z,101535.25
2022-10-09T05:55:22.585Z,101525.41
2022-10-09T05:58:25.811Z,101556.88
2022-10-09T06:01:32.932Z,101557.75
2022-10-09T06:04:35.057Z,101555.06
2022-10-09T06:07:38.249Z,101556.22
2022-10-09T06:10:40.407Z,101567.38
2022-10-09T06:13:43.872Z,101554.50
2022-10-09T06:16:46.347Z,101555.38
2022-10-09T06:19:48.647Z,101549.63
2022-10-09T06:22:51.844Z,101558.41
2022-10-09T06:25:59.601Z,101562.81
2022-10-09T06:29:02.863Z,101581.78
2022-10-09T06:32:04.960Z,101590.75
2022-10-09T06:35:07.804Z,101577.69
2022-10-09T06:38:10.783Z,101587.03
2022-10-09T06:41:24.465Z,101616.31
2022-10-09T06:44:26.901Z,101602.78
2022-10-09T06:47:31.723Z,101598.00
2022-10-09T06:50:37.367Z,101609.53
2022-10-09T06:53:43.270Z,101603.94
2022-10-09T06:56:45.452Z,101585.81
2022-10-09T06:59:50.291Z,101599.00
2022-10-09T07:02:53.014Z,101590.25
2022-10-09T07:06:05.105Z,101610.53
2022-10-09T07:09:10.266Z,101608.31
2022-10-09T07:12:13.157Z,101631.34
2022-10-09T07:15:15.430Z,101621.50
2022-10-09T07:18:17.741Z,101600.34
2022-10-09T07:21:20.162Z,101606.25
2022-10-09T07:24:25.247Z,101610.25
2022-10-09T07:27:28.565Z,101609.38
2022-10-09T07:30:30.960Z,101599.06
2022-10-09T07:33:33.467Z,101605.66
2022-10-09T07:36:36.026Z,101605.13
2022-10-09T07:39:40.578Z,101618.00
2022-10-09T07:42:44.971Z,101619.38
2022-10-09T07:45:48.737Z,101627.31
2022-10-09T07:48:51.642Z,101627.13
2022-10-09T07:51:55.857Z,101593.63
2022-10-09T07:54:58.116Z,101600.38
2022-10-09T07:58:00.298Z,101617.09
2022-10-09T08:01:08.629Z,101627.91
2022-10-09T08:04:11.047Z,101626.53
2022-10-09T08:07:14.744Z,101619.72
2022-10-09T08:10:18.268Z,101590.25
2022-10-09T08:13:21.623Z,101606.16
2022-10-09T08:16:25.605Z,101608.81
2022-10-09T08:19:27.704Z,101601.88
2022-10-09T08:22:32.745Z,101594.75
2022-10-09T08:25:37.063Z,101601.88
2022-10-09T08:28:39.189Z,101596.81
2022-10-09T08:31:41.347Z,101575.66
2022-10-09T08:34:43.561Z,101579.19
2022-10-09T08:37:46.869Z,101602.56
2022-10-09T08:41:00.954Z,101604.22
2022-10-09T08:44:20.946Z,101594.53
2022-10-09T08:47:41.279Z,101578.13
2022-10-09T08:50:49.429Z,101578.41
2022-10-09T08:53:58.968Z,101590.00
2022-10-09T08:57:04.407Z,101587.22
2022-10-09T09:00:18.136Z,101557.13
2022-10-09T09:03:45.374Z,101592.06
2022-10-09T09:07:06.220Z,101590.66
2022-10-09T09:10:24.397Z,101580.28
2022-10-09T09:13:38.671Z,101575.16
2022-10-09T09:17:11.488Z,101573.56
2022-10-09T09:20:30.275Z,101565.03
2022-10-09T09:23:40.908Z,101555.75
2022-10-09T09:26:45.662Z,101572.00
2022-10-09T09:30:19.870Z,101563.47
2022-10-09T09:33:50.516Z,101558.03
2022-10-09T09:36:57.598Z,101560.66
2022-10-09T09:43:24.163Z,101557.63
2022-10-09T09:46:31.155Z,101548.63
2022-10-09T09:49:34.207Z,101557.53
2022-10-09T09:52:40.748Z,101556.59
2022-10-09T09:55:43.043Z,101547.78
2022-10-09T09:58:48.440Z,101565.16
2022-10-09T10:02:00.589Z,101533.91
2022-10-09T10:05:15.907Z,101548.25
2022-10-09T10:08:34.753Z,101568.13
2022-10-09T10:11:37.565Z,101555.09
2022-10-09T10:14:51.028Z,101545.22
2022-10-09T10:18:10.880Z,101561.28
2022-10-09T10:21:17.172Z,101559.41
2022-10-09T10:24:28.066Z,101555.38
2022-10-09T10:27:40.808Z,101567.09
2022-10-09T10:30:44.004Z,101560.72
2022-10-09T10:33:54.262Z,101572.53
2022-10-09T10:37:15.712Z,101556.59
2022-10-09T10:40:31.180Z,101566.78
2022-10-09T10:43:51.667Z,101553.94
2022-10-09T10:47:02.048Z,101537.34
2022-10-09T10:50:05.207Z,101538.19
2022-10-09T10:53:29.428Z,101540.91
2022-10-09T10:56:38.230Z,101520.84
2022-10-09T11:00:04.237Z,101553.94
2022-10-09T11:03:34.624Z,101539.00
2022-10-09T11:07:00.701Z,101550.28
2022-10-09T11:10:54.899Z,101540.09
2022-10-09T11:14:21.967Z,101549.41
2022-10-09T11:17:55.891Z,101537.13
2022-10-09T11:21:13.595Z,101520.13
2022-10-09T11:24:44.504Z,101527.78
2022-10-09T11:27:54.939Z,101506.34
2022-10-09T11:34:37.758Z,101503.94
2022-10-09T11:37:42.329Z,101509.00
2022-10-09T11:40:44.497Z,101521.25
2022-10-09T11:44:02.617Z,101527.16
2022-10-09T11:47:16.854Z,101526.75
2022-10-09T11:50:42.978Z,101536.44
2022-10-09T11:53:46.448Z,101527.59
2022-10-09T11:57:06.121Z,101526.09
2022-10-09T12:00:10.604Z,101531.38
2022-10-09T12:03:33.779Z,101550.91
2022-10-09T12:06:47.958Z,101547.34
2022-10-09T12:09:59.843Z,101536.09
2022-10-09T12:13:08.447Z,101556.91
2022-10-09T12:16:50.337Z,101565.06
2022-10-09T12:20:00.082Z,101567.63
2022-10-09T12:23:27.070Z,101575.97
2022-10-09T12:26:31.345Z,101563.44
2022-10-09T12:29:44.699Z,101574.41
2022-10-09T12:32:54.489Z,101602.72
2022-10-09T12:36:03.939Z,101605.31
2022-10-09T12:39:23.404Z,101542.00
2022-10-09T12:42:25.582Z,101594.06
2022-10-09T12:45:30.691Z,101599.63
2022-10-09T12:48:39.017Z,101622.91
2022-10-09T12:51:41.066Z,101621.63
2022-10-09T12:54:45.178Z,101627.66
2022-10-09T12:57:47.590Z,101634.59
2022-10-09T13:00:53.739Z,101642.56
2022-10-09T13:04:04.735Z,101644.84
2022-10-09T13:07:18.783Z,101639.84
2022-10-09T13:10:23.503Z,101642.78
2022-10-09T13:13:28.367Z,101643.00
2022-10-09T13:16:45.115Z,101645.38
2022-10-09T13:19:54.962Z,101642.59
2022-10-09T13:23:02.781Z,101644.50
2022-10-09T13:26:07.706Z,101640.97
2022-10-09T13:29:14.383Z,101625.81
2022-10-09T13:32:18.465Z,101646.63
2022-10-09T13:35:26.567Z,101645.16
2022-10-09T13:38:34.610Z,101640.50
2022-10-09T13:41:37.244Z,101668.09
2022-10-09T13:44:39.698Z,101651.88
2022-10-09T13:47:41.902Z,101655.88
2022-10-09T13:50:44.747Z,101680.47
2022-10-09T13:53:47.052Z,101655.94
2022-10-09T13:56:55.555Z,101673.97
2022-10-09T13:59:58.409Z,101656.00
2022-10-09T14:03:01.733Z,101675.00
2022-10-09T14:06:03.921Z,101686.41
2022-10-09T14:09:06.752Z,101689.56
2022-10-09T14:12:09.077Z,101680.22
2022-10-09T14:15:11.298Z,101694.00
2022-10-09T14:18:13.406Z,101702.25
2022-10-09T14:21:15.942Z,101700.28
2022-10-09T14:24:19.539Z,101694.28
2022-10-09T14:27:21.654Z,101668.72
2022-10-09T14:30:23.793Z,101700.75
2022-10-09T14:33:26.570Z,101705.91
2022-10-09T14:36:29.263Z,101701.41
2022-10-09T14:39:31.369Z,101693.84
2022-10-09T14:42:33.395Z,101701.44
2022-10-09T14:45:35.435Z,101703.81
2022-10-09T14:48:38.159Z,101716.31
2022-10-09T14:51:41.340Z,101727.47
2022-10-09T14:54:43.337Z,101707.31
2022-10-09T14:57:45.457Z,101725.53
2022-10-09T15:00:47.751Z,101724.94
2022-10-09T15:03:50.111Z,101734.34
2022-10-09T15:06:52.431Z,101733.19
2022-10-09T15:09:58.106Z,101728.84
2022-10-09T15:13:00.088Z,101721.72
2022-10-09T15:16:04.886Z,101756.16
2022-10-09T15:19:06.929Z,101744.97
2022-10-09T15:22:09.030Z,101725.19
2022-10-09T15:25:13.479Z,101743.31
2022-10-09T15:28:17.234Z,101747.63
2022-10-09T15:31:28.320Z,101751.34
2022-10-09T15:34:31.026Z,101764.09
2022-10-09T15:37:33.192Z,101778.38
2022-10-09T15:40:47.189Z,101785.19
2022-10-09T15:43:50.482Z,101769.97
2022-10-09T15:46:52.784Z,101806.97
2022-10-09T15:49:54.818Z,101792.31
2022-10-09T15:52:57.047Z,101804.03
2022-10-09T15:56:05.538Z,101804.38
2022-10-09T15:59:10.792Z,101805.44
2022-10-09T16:02:13.317Z,101817.31
2022-10-09T16:05:15.472Z,101823.75
2022-10-09T16:08:19.045Z,101829.28
2022-10-09T16:11:24.963Z,101827.09
2022-10-09T16:14:30.471Z,101822.34
2022-10-09T16:17:32.563Z,101840.34
2022-10-09T16:20:35.857Z,101829.09
2022-10-09T16:23:38.000Z,101842.19
2022-10-09T16:26:40.051Z,101842.63
2022-10-09T16:29:42.228Z,101842.63
2022-10-09T16:32:44.238Z,101845.28
2022-10-09T16:35:46.719Z,101849.94
2022-10-09T16:38:49.055Z,101843.66
2022-10-09T16:41:50.974Z,101868.75
2022-10-09T16:44:53.114Z,101866.03
2022-10-09T16:48:00.135Z,101870.78
2022-10-09T16:51:02.257Z,101873.88
2022-10-09T16:54:05.761Z,101884.38
2022-10-09T16:57:08.490Z,101881.53
2022-10-09T17:00:11.101Z,101873.44
2022-10-09T17:03:13.178Z,101885.50
2022-10-09T17:06:19.845Z,101885.84
2022-10-09T17:09:22.152Z,101889.31
2022-10-09T17:12:24.821Z,101886.34
2022-10-09T17:15:26.943Z,101897.91
2022-10-09T17:18:30.082Z,101905.44
2022-10-09T17:21:34.539Z,101905.94
2022-10-09T17:24:37.283Z,101903.13
2022-10-09T17:27:39.828Z,101892.84
2022-10-09T17:30:41.953Z,101898.72
2022-10-09T17:33:46.422Z,101889.97
2022-10-09T17:36:48.521Z,101900.03
2022-10-09T17:39:52.919Z,101897.94
2022-10-09T17:42:55.036Z,101891.41
2022-10-09T17:45:57.358Z,101921.69
2022-10-09T17:49:02.904Z,101916.41
2022-10-09T17:52:05.931Z,101904.91
2022-10-09T17:55:08.655Z,101897.97
2022-10-09T17:58:12.644Z,101915.28
2022-10-09T18:01:16.083Z,101917.88
2022-10-09T18:04:20.167Z,101921.81
2022-10-09T18:07:22.775Z,101918.53
2022-10-09T18:10:25.610Z,101922.16
2022-10-09T18:13:28.365Z,101930.13
2022-10-09T18:16:36.178Z,101921.00
2022-10-09T18:19:38.613Z,101921.34
2022-10-09T18:22:41.541Z,101933.47
2022-10-09T18:25:44.828Z,101942.00
2022-10-09T18:28:48.856Z,101922.69
2022-10-09T18:31:55.848Z,101926.72
2022-10-09T18:34:58.217Z,101927.06
2022-10-09T18:38:00.383Z,101950.66
2022-10-09T18:41:02.452Z,101948.19
2022-10-09T18:44:05.630Z,101953.97
2022-10-09T18:47:13.323Z,101965.22
2022-10-09T18:50:17.263Z,101945.75
2022-10-09T18:53:19.410Z,101976.31
2022-10-09T18:56:22.989Z,101974.31
2022-10-09T18:59:25.152Z,101991.63
2022-10-09T19:02:32.187Z,101988.47
2022-10-09T19:05:34.387Z,101987.47
2022-10-09T19:08:38.607Z,101979.31
2022-10-09T19:11:40.774Z,101984.59
2022-10-09T19:14:43.841Z,101992.25
2022-10-09T19:17:48.294Z,101999.91
2022-10-09T19:20:50.672Z,102016.19
2022-10-09T19:23:54.369Z,102002.59
2022-10-09T19:27:01.188Z,102023.81
2022-10-09T19:30:04.959Z,102011.78
2022-10-09T19:33:07.006Z,102011.63
2022-10-09T19:36:12.014Z,102024.34
2022-10-09T19:39:14.628Z,102018.28
2022-10-09T19:42:19.099Z,102039.50
2022-10-09T19:45:21.538Z,102043.41
2022-10-09T19:48:25.405Z,102047.28
2022-10-09T19:51:28.753Z,102024.19
2022-10-09T19:54:35.688Z,102042.53
2022-10-09T19:57:37.795Z,102061.72
2022-10-09T20:00:45.284Z,102063.41
2022-10-09T20:03:48.948Z,102052.19
2022-10-09T20:06:52.116Z,102053.41
2022-10-09T20:09:54.193Z,102062.72
2022-10-09T20:12:57.482Z,102048.56
2022-10-09T20:16:01.136Z,102068.16
2022-10-09T20:19:04.870Z,102064.22
2022-10-09T20:22:07.907Z,102035.00
2022-10-09T20:25:11.119Z,102048.28
2022-10-09T20:28:14.753Z,102052.19
2022-10-09T20:31:20.797Z,102066.63
2022-10-09T20:34:25.123Z,102061.38
2022-10-09T20:37:27.629Z,102061.69
2022-10-09T20:40:29.662Z,102065.25
2022-10-09T20:43:32.109Z,102071.91
2022-10-09T20:46:36.595Z,102071.19
2022-10-09T20:49:44.255Z,102074.09
2022-10-09T20:52:47.992Z,102055.75
2022-10-09T20:55:50.288Z,102098.53
2022-10-09T20:58:53.030Z,102093.56
2022-10-09T21:01:55.509Z,102081.47
2022-10-09T21:04:59.975Z,102089.59
2022-10-09T21:08:02.064Z,102091.47
2022-10-09T21:11:07.095Z,102090.44
2022-10-09T21:14:10.904Z,102110.47
2022-10-09T21:17:13.165Z,102094.19
2022-10-09T21:20:15.962Z,102106.59
2022-10-09T21:23:18.924Z,102107.94
2022-10-09T21:26:23.093Z,102100.44
2022-10-09T21:29:27.250Z,102094.16
2022-10-09T21:32:29.745Z,102100.38
2022-10-09T21:35:38.559Z,102114.44
2022-10-09T21:38:41.370Z,102136.66
2022-10-09T21:41:43.997Z,102126.97
2022-10-09T21:44:46.095Z,102117.31
2022-10-09T21:47:49.073Z,102136.16
2022-10-09T21:50:51.593Z,102141.59
2022-10-09T21:53:55.843Z,102132.28
2022-10-09T21:56:58.492Z,102120.34
2022-10-09T22:00:00.767Z,102133.91
2022-10-09T22:03:02.991Z,102155.50
2022-10-09T22:06:17.744Z,102153.78
2022-10-09T22:09:20.985Z,102154.25
2022-10-09T22:12:23.276Z,102158.41
2022-10-09T22:15:26.289Z,102153.59
2022-10-09T22:18:28.633Z,102145.56
2022-10-09T22:21:30.684Z,102146.38
2022-10-09T22:24:32.848Z,102168.13
2022-10-09T22:27:35.077Z,102141.38
2022-10-09T22:30:37.964Z,102171.59
2022-10-09T22:33:40.830Z,102185.03
2022-10-09T22:36:44.065Z,102165.81
2022-10-09T22:39:46.123Z,102167.00
2022-10-09T22:42:49.342Z,102175.66
2022-10-09T22:45:52.490Z,102183.88
2022-10-09T22:48:54.726Z,102177.69
2022-10-09T22:51:57.535Z,102182.25
2022-10-09T22:55:00.799Z,102199.19
2022-10-09T22:58:02.770Z,102205.41
2022-10-09T23:01:08.266Z,102189.91
2022-10-09T23:04:14.544Z,102187.28
2022-10-09T23:07:16.615Z,102177.00
2022-10-09T23:10:20.488Z,102201.44
2022-10-09T23:13:22.551Z,102193.06
2022-10-09T23:16:29.892Z,102197.19
2022-10-09T23:19:31.999Z,102203.28
2022-10-09T23:22:34.093Z,102197.28
2022-10-09T23:25:40.487Z,102188.91
2022-10-09T23:28:44.299Z,102209.50
2022-10-09T23:31:52.765Z,102183.31
2022-10-09T23:34:55.305Z,102198.91
2022-10-09T23:37:57.484Z,102224.06
2022-10-09T23:41:02.588Z,102224.91
2022-10-09T23:44:05.437Z,102221.78
2022-10-09T23:47:09.340Z,102198.09
2022-10-09T23:50:11.820Z,102207.00
2022-10-09T23:53:14.216Z,102206.41
2022-10-09T23:56:23.782Z,102219.31
2022-10-09T23:59:25.690Z,102229.59
